sensor_id;sensor_type;location;lat;lon;timestamp;pressure;altitude;pressure_sealevel;temperature;humidity
10510;BME280;5303;53.266;10.410;2024-01-30T00:00:16;102574.06;;;3.57;100.00
10510;BME280;5303;53.266;10.410;2024-01-30T00:02:41;102569.50;;;3.53;100.00
10510;BME280;5303;53.266;10.410;2024-01-30T00:05:08;102566.81;;;3.52;100.00
10510;BME280;5303;53.266;10.410;2024-01-30T00:07:33;102572.94;;;3.52;100.00
10510;BME280;5303;53.266;10.410;2024-01-30T00:09:59;102576.44;;;3.53;100.00
10510;BME280;5303;53.266;10.410;2024-01-30T00:12:24;102575.41;;;3.49;100.00
10510;BME280;5303;53.266;10.410;2024-01-30T00:14:50;102563.94;;;3.47;100.00
10510;BME280;5303;53.266;10.410;2024-01-30T00:17:15;102565.66;;;3.46;100.00
10510;BME280;5303;53.266;10.410;2024-01-30T00:19:40;102570.41;;;3.54;100.00
10510;BME280;5303;53.266;10.410;2024-01-30T00:22:05;102563.47;;;3.54;100.00
10510;BME280;5303;53.266;10.410;2024-01-30T00:24:31;102559.34;;;3.58;100.00
10510;BME280;5303;53.266;10.410;2024-01-30T00:26:56;102567.47;;;3.64;100.00
10510;BME280;5303;53.266;10.410;2024-01-30T00:29:21;102565.53;;;3.60;100.00
10510;BME280;5303;53.266;10.410;2024-01-30T00:31:48;102562.94;;;3.60;100.00
10510;BME280;5303;53.266;10.410;2024-01-30T00:34:16;102569.66;;;3.56;100.00
10510;BME280;5303;53.266;10.410;2024-01-30T00:36:41;102565.03;;;3.51;100.00
10510;BME280;5303;53.266;10.410;2024-01-30T00:39:06;102570.09;;;3.47;100.00
10510;BME280;5303;53.266;10.410;2024-01-30T00:41:34;102564.69;;;3.44;100.00
10510;BME280;5303;53.266;10.410;2024-01-30T00:43:59;102564.53;;;3.41;100.00
10510;BME280;5303;53.266;10.410;2024-01-30T00:46:25;102563.81;;;3.44;100.00
10510;BME280;5303;53.266;10.410;2024-01-30T00:48:50;102565.44;;;3.42;100.00
10510;BME280;5303;53.266;10.410;2024-01-30T00:51:15;102556.72;;;3.41;100.00
10510;BME280;5303;53.266;10.410;2024-01-30T00:53:40;102554.09;;;3.41;100.00
10510;BME280;5303;53.266;10.410;2024-01-30T00:56:07;102560.97;;;3.39;100.00
10510;BME280;5303;53.266;10.410;2024-01-30T00:58:32;102552.47;;;3.43;100.00
10510;BME280;5303;53.266;10.410;2024-01-30T01:00:58;102561.25;;;3.45;100.00
10510;BME280;5303;53.266;10.410;2024-01-30T01:03:23;102564.69;;;3.44;100.00
10510;BME280;5303;53.266;10.410;2024-01-30T01:05:48;102561.13;;;3.42;100.00
10510;BME280;5303;53.266;10.410;2024-01-30T01:08:13;102569.59;;;3.38;100.00
10510;BME280;5303;53.266;10.410;2024-01-30T01:10:40;102565.28;;;3.39;100.00
10510;BME280;5303;53.266;10.410;2024-01-30T01:13:05;102558.00;;;3.33;100.00
10510;BME280;5303;53.266;10.410;2024-01-30T01:15:30;102560.69;;;3.35;100.00
10510;BME280;5303;53.266;10.410;2024-01-30T01:17:56;102567.63;;;3.34;100.00
10510;BME280;5303;53.266;10.410;2024-01-30T01:20:21;102556.28;;;3.34;100.00
10510;BME280;5303;53.266;10.410;2024-01-30T01:22:46;102558.81;;;3.32;100.00
10510;BME280;5303;53.266;10.410;2024-01-30T01:25:11;102555.25;;;3.30;100.00
10510;BME280;5303;53.266;10.410;2024-01-30T01:27:37;102560.59;;;3.33;100.00
10510;BME280;5303;53.266;10.410;2024-01-30T01:30:08;102546.66;;;3.33;100.00
10510;BME280;5303;53.266;10.410;2024-01-30T01:32:34;102551.97;;;3.34;100.00
10510;BME280;5303;53.266;10.410;2024-01-30T01:35:00;102556.28;;;3.34;100.00
10510;BME280;5303;53.266;10.410;2024-01-30T01:37:25;102548.63;;;3.37;100.00
10510;BME280;5303;53.266;10.410;2024-01-30T01:39:52;102553.75;;;3.35;100.00
10510;BME280;5303;53.266;10.410;2024-01-30T01:42:17;102554.50;;;3.33;100.00
10510;BME280;5303;53.266;10.410;2024-01-30T01:44:42;102552.38;;;3.42;100.00
10510;BME280;5303;53.266;10.410;2024-01-30T01:47:08;102546.94;;;3.37;100.00
10510;BME280;5303;53.266;10.410;2024-01-30T01:49:33;102545.13;;;3.36;100.00
10510;BME280;5303;53.266;10.410;2024-01-30T01:51:59;102546.13;;;3.38;100.00
10510;BME280;5303;53.266;10.410;2024-01-30T01:54:25;102546.59;;;3.31;100.00
10510;BME280;5303;53.266;10.410;2024-01-30T01:56:52;102545.53;;;3.28;100.00
10510;BME280;5303;53.266;10.410;2024-01-30T01:59:18;102534.91;;;3.25;100.00
10510;BME280;5303;53.266;10.410;2024-01-30T02:01:44;102539.97;;;3.22;100.00
10510;BME280;5303;53.266;10.410;2024-01-30T02:04:14;102542.34;;;3.17;100.00
10510;BME280;5303;53.266;10.410;2024-01-30T02:06:39;102531.66;;;3.12;100.00
10510;BME280;5303;53.266;10.410;2024-01-30T02:09:04;102533.22;;;3.09;100.00
10510;BME280;5303;53.266;10.410;2024-01-30T02:11:30;102533.03;;;3.06;100.00
10510;BME280;5303;53.266;10.410;2024-01-30T02:13:55;102529.44;;;3.04;100.00
10510;BME280;5303;53.266;10.410;2024-01-30T02:16:21;102534.50;;;3.01;100.00
10510;BME280;5303;53.266;10.410;2024-01-30T02:18:46;102521.31;;;2.98;100.00
10510;BME280;5303;53.266;10.410;2024-01-30T02:21:15;102529.75;;;2.94;100.00
10510;BME280;5303;53.266;10.410;2024-01-30T02:23:41;102523.56;;;2.92;100.00
10510;BME280;5303;53.266;10.410;2024-01-30T02:26:07;102524.38;;;2.91;100.00
10510;BME280;5303;53.266;10.410;2024-01-30T02:28:33;102516.38;;;2.87;100.00
10510;BME280;5303;53.266;10.410;2024-01-30T02:30:58;102518.88;;;2.86;100.00
10510;BME280;5303;53.266;10.410;2024-01-30T02:33:23;102519.81;;;2.86;100.00
10510;BME280;5303;53.266;10.410;2024-01-30T02:35:48;102516.19;;;2.84;100.00
10510;BME280;5303;53.266;10.410;2024-01-30T02:38:15;102506.66;;;2.85;100.00
10510;BME280;5303;53.266;10.410;2024-01-30T02:40:41;102513.59;;;2.84;100.00
10510;BME280;5303;53.266;10.410;2024-01-30T02:43:06;102508.38;;;2.84;100.00
10510;BME280;5303;53.266;10.410;2024-01-30T02:45:31;102510.16;;;2.85;100.00
10510;BME280;5303;53.266;10.410;2024-01-30T02:47:57;102510.28;;;2.87;100.00
10510;BME280;5303;53.266;10.410;2024-01-30T02:50:22;102502.69;;;2.92;100.00
10510;BME280;5303;53.266;10.410;2024-01-30T02:52:47;102500.19;;;2.93;100.00
10510;BME280;5303;53.266;10.410;2024-01-30T02:55:13;102503.06;;;2.98;100.00
10510;BME280;5303;53.266;10.410;2024-01-30T02:57:38;102510.38;;;3.05;100.00
10510;BME280;5303;53.266;10.410;2024-01-30T03:00:05;102508.19;;;3.12;100.00
10510;BME280;5303;53.266;10.410;2024-01-30T03:02:32;102502.44;;;3.18;100.00
10510;BME280;5303;53.266;10.410;2024-01-30T03:04:58;102503.72;;;3.26;100.00
10510;BME280;5303;53.266;10.410;2024-01-30T03:07:23;102502.91;;;3.27;100.00
10510;BME280;5303;53.266;10.410;2024-01-30T03:09:49;102496.88;;;3.28;100.00
10510;BME280;5303;53.266;10.410;2024-01-30T03:12:14;102494.44;;;3.31;100.00
10510;BME280;5303;53.266;10.410;2024-01-30T03:14:39;102499.81;;;3.34;100.00
10510;BME280;5303;53.266;10.410;2024-01-30T03:17:04;102496.31;;;3.34;100.00
10510;BME280;5303;53.266;10.410;2024-01-30T03:19:30;102496.44;;;3.37;100.00
10510;BME280;5303;53.266;10.410;2024-01-30T03:21:55;102493.94;;;3.38;100.00
10510;BME280;5303;53.266;10.410;2024-01-30T03:24:20;102491.34;;;3.38;100.00
10510;BME280;5303;53.266;10.410;2024-01-30T03:26:46;102493.28;;;3.42;100.00
10510;BME280;5303;53.266;10.410;2024-01-30T03:29:11;102485.69;;;3.47;100.00
10510;BME280;5303;53.266;10.410;2024-01-30T03:31:38;102482.38;;;3.50;100.00
10510;BME280;5303;53.266;10.410;2024-01-30T03:34:04;102477.97;;;3.49;100.00
10510;BME280;5303;53.266;10.410;2024-01-30T03:36:29;102479.84;;;3.51;100.00
10510;BME280;5303;53.266;10.410;2024-01-30T03:38:57;102481.56;;;3.51;100.00
10510;BME280;5303;53.266;10.410;2024-01-30T03:41:23;102473.72;;;3.51;100.00
10510;BME280;5303;53.266;10.410;2024-01-30T03:43:48;102471.94;;;3.50;100.00
10510;BME280;5303;53.266;10.410;2024-01-30T03:46:13;102469.31;;;3.50;100.00
10510;BME280;5303;53.266;10.410;2024-01-30T03:48:39;102468.44;;;3.49;100.00
10510;BME280;5303;53.266;10.410;2024-01-30T03:51:04;102476.31;;;3.51;100.00
10510;BME280;5303;53.266;10.410;2024-01-30T03:53:29;102473.72;;;3.51;100.00
10510;BME280;5303;53.266;10.410;2024-01-30T03:55:55;102465.91;;;3.51;100.00
10510;BME280;5303;53.266;10.410;2024-01-30T03:58:20;102469.41;;;3.51;100.00
10510;BME280;5303;53.266;10.410;2024-01-30T04:00:45;102462.13;;;3.45;100.00
10510;BME280;5303;53.266;10.410;2024-01-30T04:03:12;102465.28;;;3.56;100.00
10510;BME280;5303;53.266;10.410;2024-01-30T04:05:37;102470.28;;;3.52;100.00
10510;BME280;5303;53.266;10.410;2024-01-30T04:08:02;102465.16;;;3.53;100.00
10510;BME280;5303;53.266;10.410;2024-01-30T04:10:28;102470.38;;;3.53;100.00
10510;BME280;5303;53.266;10.410;2024-01-30T04:12:53;102463.28;;;3.51;100.00
10510;BME280;5303;53.266;10.410;2024-01-30T04:15:19;102467.84;;;3.55;100.00
10510;BME280;5303;53.266;10.410;2024-01-30T04:17:44;102467.00;;;3.56;100.00
10510;BME280;5303;53.266;10.410;2024-01-30T04:20:14;102464.41;;;3.56;100.00
10510;BME280;5303;53.266;10.410;2024-01-30T04:22:41;102462.63;;;3.55;100.00
10510;BME280;5303;53.266;10.410;2024-01-30T04:25:06;102460.75;;;3.52;100.00
10510;BME280;5303;53.266;10.410;2024-01-30T04:27:32;102461.72;;;3.54;100.00
10510;BME280;5303;53.266;10.410;2024-01-30T04:29:57;102465.22;;;3.55;100.00
10510;BME280;5303;53.266;10.410;2024-01-30T04:32:22;102464.66;;;3.60;100.00
10510;BME280;5303;53.266;10.410;2024-01-30T04:34:47;102454.16;;;3.59;100.00
10510;BME280;5303;53.266;10.410;2024-01-30T04:37:13;102463.59;;;3.57;100.00
10510;BME280;5303;53.266;10.410;2024-01-30T04:39:38;102464.25;;;3.53;100.00
10510;BME280;5303;53.266;10.410;2024-01-30T04:42:04;102462.53;;;3.53;100.00
10510;BME280;5303;53.266;10.410;2024-01-30T04:44:29;102458.47;;;3.58;100.00
10510;BME280;5303;53.266;10.410;2024-01-30T04:46:55;102471.75;;;3.63;100.00
10510;BME280;5303;53.266;10.410;2024-01-30T04:49:24;102464.88;;;3.65;100.00
10510;BME280;5303;53.266;10.410;2024-01-30T04:51:49;102463.03;;;3.62;100.00
10510;BME280;5303;53.266;10.410;2024-01-30T04:54:14;102459.66;;;3.65;100.00
10510;BME280;5303;53.266;10.410;2024-01-30T04:56:39;102458.69;;;3.63;100.00
10510;BME280;5303;53.266;10.410;2024-01-30T04:59:05;102458.69;;;3.63;100.00
10510;BME280;5303;53.266;10.410;2024-01-30T05:01:30;102460.47;;;3.64;100.00
10510;BME280;5303;53.266;10.410;2024-01-30T05:03:55;102463.59;;;3.57;100.00
10510;BME280;5303;53.266;10.410;2024-01-30T05:06:27;102457.56;;;3.58;100.00
10510;BME280;5303;53.266;10.410;2024-01-30T05:08:52;102457.47;;;3.56;100.00
10510;BME280;5303;53.266;10.410;2024-01-30T05:11:18;102461.72;;;3.54;100.00
10510;BME280;5303;53.266;10.410;2024-01-30T05:13:43;102464.41;;;3.56;100.00
10510;BME280;5303;53.266;10.410;2024-01-30T05:16:08;102461.56;;;3.51;100.00
10510;BME280;5303;53.266;10.410;2024-01-30T05:18:33;102462.31;;;3.49;100.00
10510;BME280;5303;53.266;10.410;2024-01-30T05:20:59;102463.91;;;3.46;100.00
10510;BME280;5303;53.266;10.410;2024-01-30T05:23:24;102467.03;;;3.39;100.00
10510;BME280;5303;53.266;10.410;2024-01-30T05:25:50;102468.50;;;3.34;100.00
10510;BME280;5303;53.266;10.410;2024-01-30T05:28:15;102467.47;;;3.31;100.00
10510;BME280;5303;53.266;10.410;2024-01-30T05:30:40;102463.22;;;3.33;100.00
10510;BME280;5303;53.266;10.410;2024-01-30T05:33:05;102463.88;;;3.29;100.00
10510;BME280;5303;53.266;10.410;2024-01-30T05:35:32;102468.19;;;3.28;100.00
10510;BME280;5303;53.266;10.410;2024-01-30T05:37:57;102456.75;;;3.26;100.00
10510;BME280;5303;53.266;10.410;2024-01-30T05:40:23;102455.78;;;3.24;100.00
10510;BME280;5303;53.266;10.410;2024-01-30T05:42:48;102450.41;;;3.21;100.00
10510;BME280;5303;53.266;10.410;2024-01-30T05:45:13;102447.00;;;3.22;100.00
10510;BME280;5303;53.266;10.410;2024-01-30T05:47:39;102453.84;;;3.20;100.00
10510;BME280;5303;53.266;10.410;2024-01-30T05:50:04;102451.88;;;3.16;100.00
10510;BME280;5303;53.266;10.410;2024-01-30T05:52:30;102446.78;;;3.17;100.00
10510;BME280;5303;53.266;10.410;2024-01-30T05:54:55;102445.06;;;3.18;100.00
10510;BME280;5303;53.266;10.410;2024-01-30T05:57:20;102453.69;;;3.17;100.00
10510;BME280;5303;53.266;10.410;2024-01-30T05:59:46;102450.16;;;3.16;100.00
10510;BME280;5303;53.266;10.410;2024-01-30T06:02:14;102446.66;;;3.16;100.00
10510;BME280;5303;53.266;10.410;2024-01-30T06:04:39;102448.47;;;3.17;100.00
10510;BME280;5303;53.266;10.410;2024-01-30T06:07:04;102448.38;;;3.15;100.00
10510;BME280;5303;53.266;10.410;2024-01-30T06:09:31;102456.13;;;3.14;100.00
10510;BME280;5303;53.266;10.410;2024-01-30T06:11:57;102451.72;;;3.13;100.00
10510;BME280;5303;53.266;10.410;2024-01-30T06:14:22;102442.25;;;3.15;100.00
10510;BME280;5303;53.266;10.410;2024-01-30T06:16:47;102430.22;;;3.17;100.00
10510;BME280;5303;53.266;10.410;2024-01-30T06:19:13;102439.84;;;3.18;100.00
10510;BME280;5303;53.266;10.410;2024-01-30T06:21:38;102433.97;;;3.22;100.00
10510;BME280;5303;53.266;10.410;2024-01-30T06:24:04;102431.34;;;3.22;100.00
10510;BME280;5303;53.266;10.410;2024-01-30T06:26:29;102424.56;;;3.26;100.00
10510;BME280;5303;53.266;10.410;2024-01-30T06:28:55;102431.69;;;3.28;100.00
10510;BME280;5303;53.266;10.410;2024-01-30T06:31:20;102428.41;;;3.32;100.00
10510;BME280;5303;53.266;10.410;2024-01-30T06:33:49;102432.88;;;3.35;100.00
10510;BME280;5303;53.266;10.410;2024-01-30T06:36:14;102428.41;;;3.32;100.00
10510;BME280;5303;53.266;10.410;2024-01-30T06:38:40;102433.63;;;3.32;100.00
10510;BME280;5303;53.266;10.410;2024-01-30T06:41:06;102428.25;;;3.29;100.00
10510;BME280;5303;53.266;10.410;2024-01-30T06:43:31;102423.03;;;3.29;100.00
10510;BME280;5303;53.266;10.410;2024-01-30T06:45:56;102421.25;;;3.28;100.00
10510;BME280;5303;53.266;10.410;2024-01-30T06:48:21;102417.81;;;3.29;100.00
10510;BME280;5303;53.266;10.410;2024-01-30T06:50:47;102415.44;;;3.34;100.00
10510;BME280;5303;53.266;10.410;2024-01-30T06:53:13;102411.88;;;3.32;100.00
10510;BME280;5303;53.266;10.410;2024-01-30T06:55:38;102411.88;;;3.32;100.00
10510;BME280;5303;53.266;10.410;2024-01-30T06:58:03;102418.13;;;3.35;100.00
10510;BME280;5303;53.266;10.410;2024-01-30T07:00:29;102415.91;;;3.43;100.00
10510;BME280;5303;53.266;10.410;2024-01-30T07:02:54;102415.03;;;3.42;100.00
10510;BME280;5303;53.266;10.410;2024-01-30T07:05:19;102409.06;;;3.45;100.00
10510;BME280;5303;53.266;10.410;2024-01-30T07:07:46;102414.34;;;3.46;100.00
10510;BME280;5303;53.266;10.410;2024-01-30T07:10:12;102413.63;;;3.49;100.00
10510;BME280;5303;53.266;10.410;2024-01-30T07:12:37;102413.72;;;3.51;100.00
10510;BME280;5303;53.266;10.410;2024-01-30T07:15:03;102420.72;;;3.52;100.00
10510;BME280;5303;53.266;10.410;2024-01-30T07:17:28;102403.41;;;3.54;100.00
10510;BME280;5303;53.266;10.410;2024-01-30T07:19:54;102406.03;;;3.54;100.00
10510;BME280;5303;53.266;10.410;2024-01-30T07:22:19;102405.53;;;3.61;100.00
10510;BME280;5303;53.266;10.410;2024-01-30T07:24:44;102400.19;;;3.58;100.00
10510;BME280;5303;53.266;10.410;2024-01-30T07:27:12;102404.56;;;3.59;100.00
10510;BME280;5303;53.266;10.410;2024-01-30T07:29:38;102405.38;;;3.58;100.00
10510;BME280;5303;53.266;10.410;2024-01-30T07:32:03;102410.75;;;3.61;100.00
10510;BME280;5303;53.266;10.410;2024-01-30T07:34:29;102405.69;;;3.64;100.00
10510;BME280;5303;53.266;10.410;2024-01-30T07:36:54;102419.94;;;3.70;100.00
10510;BME280;5303;53.266;10.410;2024-01-30T07:39:19;102407.03;;;3.73;100.00
10510;BME280;5303;53.266;10.410;2024-01-30T07:41:44;102410.63;;;3.75;100.00
10510;BME280;5303;53.266;10.410;2024-01-30T07:44:10;102412.59;;;3.80;100.00
10510;BME280;5303;53.266;10.410;2024-01-30T07:46:35;102412.56;;;3.97;100.00
10510;BME280;5303;53.266;10.410;2024-01-30T07:49:00;102405.63;;;3.98;100.00
10510;BME280;5303;53.266;10.410;2024-01-30T07:51:26;102403.19;;;4.01;100.00
10510;BME280;5303;53.266;10.410;2024-01-30T07:53:53;102404.09;;;4.01;100.00
10510;BME280;5303;53.266;10.410;2024-01-30T07:56:18;102388.56;;;4.04;100.00
10510;BME280;5303;53.266;10.410;2024-01-30T07:58:44;102390.81;;;4.15;100.00
10510;BME280;5303;53.266;10.410;2024-01-30T08:01:10;102398.72;;;4.16;100.00
10510;BME280;5303;53.266;10.410;2024-01-30T08:03:35;102396.34;;;4.21;100.00
10510;BME280;5303;53.266;10.410;2024-01-30T08:06:01;102397.66;;;4.30;100.00
10510;BME280;5303;53.266;10.410;2024-01-30T08:08:26;102395.25;;;4.35;100.00
10510;BME280;5303;53.266;10.410;2024-01-30T08:10:52;102395.41;;;4.38;100.00
10510;BME280;5303;53.266;10.410;2024-01-30T08:13:17;102386.28;;;4.48;100.00
10510;BME280;5303;53.266;10.410;2024-01-30T08:15:42;102396.13;;;4.53;100.00
10510;BME280;5303;53.266;10.410;2024-01-30T08:18:08;102394.47;;;4.55;100.00
10510;BME280;5303;53.266;10.410;2024-01-30T08:20:33;102389.69;;;4.65;100.00
10510;BME280;5303;53.266;10.410;2024-01-30T08:22:58;102387.78;;;4.60;100.00
10510;BME280;5303;53.266;10.410;2024-01-30T08:25:25;102384.59;;;4.68;100.00
10510;BME280;5303;53.266;10.410;2024-01-30T08:27:51;102381.03;;;4.66;100.00
10510;BME280;5303;53.266;10.410;2024-01-30T08:30:16;102382.81;;;4.67;100.00
10510;BME280;5303;53.266;10.410;2024-01-30T08:32:41;102381.09;;;4.67;100.00
10510;BME280;5303;53.266;10.410;2024-01-30T08:35:07;102381.31;;;4.72;100.00
10510;BME280;5303;53.266;10.410;2024-01-30T08:37:33;102378.00;;;4.76;100.00
10510;BME280;5303;53.266;10.410;2024-01-30T08:39:58;102377.81;;;4.71;100.00
10510;BME280;5303;53.266;10.410;2024-01-30T08:42:24;102372.34;;;4.67;100.00
10510;BME280;5303;53.266;10.410;2024-01-30T08:44:50;102376.56;;;4.63;100.00
10510;BME280;5303;53.266;10.410;2024-01-30T08:47:19;102381.03;;;4.66;100.00
10510;BME280;5303;53.266;10.410;2024-01-30T08:49:44;102372.56;;;4.71;100.00
10510;BME280;5303;53.266;10.410;2024-01-30T08:52:13;102380.63;;;4.76;100.00
10510;BME280;5303;53.266;10.410;2024-01-30T08:54:38;102376.41;;;4.79;100.00
10510;BME280;5303;53.266;10.410;2024-01-30T08:57:03;102372.91;;;4.79;100.00
10510;BME280;5303;53.266;10.410;2024-01-30T08:59:29;102377.47;;;4.83;100.00
10510;BME280;5303;53.266;10.410;2024-01-30T09:01:54;102375.63;;;4.80;100.00
10510;BME280;5303;53.266;10.410;2024-01-30T09:04:21;102373.19;;;4.85;100.00
10510;BME280;5303;53.266;10.410;2024-01-30T09:06:46;102375.88;;;4.86;100.00
10510;BME280;5303;53.266;10.410;2024-01-30T09:09:11;102375.41;;;4.95;100.00
10510;BME280;5303;53.266;10.410;2024-01-30T09:11:37;102367.50;;;4.94;100.00
10510;BME280;5303;53.266;10.410;2024-01-30T09:14:02;102368.38;;;4.94;100.00
10510;BME280;5303;53.266;10.410;2024-01-30T09:16:27;102363.91;;;4.91;100.00
10510;BME280;5303;53.266;10.410;2024-01-30T09:18:53;102365.06;;;4.98;100.00
10510;BME280;5303;53.266;10.410;2024-01-30T09:21:19;102356.53;;;5.02;100.00
10510;BME280;5303;53.266;10.410;2024-01-30T09:23:44;102356.78;;;5.08;100.00
10510;BME280;5303;53.266;10.410;2024-01-30T09:26:09;102350.13;;;5.15;100.00
10510;BME280;5303;53.266;10.410;2024-01-30T09:28:35;102363.31;;;5.18;100.00
10510;BME280;5303;53.266;10.410;2024-01-30T09:31:00;102365.50;;;5.28;100.00
10510;BME280;5303;53.266;10.410;2024-01-30T09:33:26;102368.19;;;5.30;100.00
10510;BME280;5303;53.266;10.410;2024-01-30T09:35:51;102364.00;;;5.33;100.00
10510;BME280;5303;53.266;10.410;2024-01-30T09:38:16;102364.59;;;5.47;100.00
10510;BME280;5303;53.266;10.410;2024-01-30T09:40:41;102366.06;;;5.61;100.00
10510;BME280;5303;53.266;10.410;2024-01-30T09:43:07;102355.13;;;5.71;100.00
10510;BME280;5303;53.266;10.410;2024-01-30T09:45:34;102353.03;;;5.84;100.00
10510;BME280;5303;53.266;10.410;2024-01-30T09:48:00;102346.53;;;5.95;100.00
10510;BME280;5303;53.266;10.410;2024-01-30T09:50:26;102341.41;;;5.98;100.00
10510;BME280;5303;53.266;10.410;2024-01-30T09:52:53;102345.94;;;6.02;100.00
10510;BME280;5303;53.266;10.410;2024-01-30T09:55:20;102347.75;;;6.03;100.00
10510;BME280;5303;53.266;10.410;2024-01-30T09:57:45;102348.28;;;6.17;100.00
10510;BME280;5303;53.266;10.410;2024-01-30T10:00:11;102344.06;;;6.20;100.00
10510;BME280;5303;53.266;10.410;2024-01-30T10:02:38;102343.22;;;6.21;100.00
10510;BME280;5303;53.266;10.410;2024-01-30T10:05:04;102340.00;;;6.28;100.00
10510;BME280;5303;53.266;10.410;2024-01-30T10:07:29;102347.22;;;6.34;100.00
10510;BME280;5303;53.266;10.410;2024-01-30T10:09:55;102351.69;;;6.37;100.00
10510;BME280;5303;53.266;10.410;2024-01-30T10:12:22;102351.00;;;6.42;100.00
10510;BME280;5303;53.266;10.410;2024-01-30T10:14:47;102354.78;;;6.49;100.00
10510;BME280;5303;53.266;10.410;2024-01-30T10:17:12;102353.34;;;6.57;100.00
10510;BME280;5303;53.266;10.410;2024-01-30T10:19:39;102344.16;;;6.68;100.00
10510;BME280;5303;53.266;10.410;2024-01-30T10:22:05;102347.56;;;6.66;100.00
10510;BME280;5303;53.266;10.410;2024-01-30T10:24:30;102346.72;;;6.67;100.00
10510;BME280;5303;53.266;10.410;2024-01-30T10:26:56;102343.56;;;6.75;100.00
10510;BME280;5303;53.266;10.410;2024-01-30T10:29:21;102343.94;;;6.86;100.00
10510;BME280;5303;53.266;10.410;2024-01-30T10:31:58;102339.53;;;6.85;100.00
10510;BME280;5303;53.266;10.410;2024-01-30T10:34:23;102342.31;;;6.89;100.00
10510;BME280;5303;53.266;10.410;2024-01-30T10:36:50;102331.09;;;6.93;100.00
10510;BME280;5303;53.266;10.410;2024-01-30T10:39:17;102330.38;;;6.98;100.00
10510;BME280;5303;53.266;10.410;2024-01-30T10:41:43;102316.56;;;7.03;100.00
10510;BME280;5303;53.266;10.410;2024-01-30T10:44:10;102311.59;;;7.11;100.00
10510;BME280;5303;53.266;10.410;2024-01-30T10:46:38;102305.81;;;7.21;100.00
10510;BME280;5303;53.266;10.410;2024-01-30T10:49:04;102302.59;;;7.28;100.00
10510;BME280;5303;53.266;10.410;2024-01-30T10:51:31;102306.16;;;7.30;100.00
10510;BME280;5303;53.266;10.410;2024-01-30T10:53:57;102298.41;;;7.35;100.00
10510;BME280;5303;53.266;10.410;2024-01-30T10:56:24;102301.22;;;7.39;100.00
10510;BME280;5303;53.266;10.410;2024-01-30T10:58:53;102300.50;;;7.45;100.00
10510;BME280;5303;53.266;10.410;2024-01-30T11:01:20;102304.25;;;7.51;100.00
10510;BME280;5303;53.266;10.410;2024-01-30T11:03:54;102297.47;;;7.58;100.00
10510;BME280;5303;53.266;10.410;2024-01-30T11:06:25;102305.53;;;7.64;100.00
10510;BME280;5303;53.266;10.410;2024-01-30T11:09:01;102300.31;;;7.66;100.00
10510;BME280;5303;53.266;10.410;2024-01-30T11:11:28;102309.25;;;7.71;100.00
10510;BME280;5303;53.266;10.410;2024-01-30T11:13:53;102299.09;;;7.82;100.00
10510;BME280;5303;53.266;10.410;2024-01-30T11:16:20;102293.81;;;7.80;100.00
10510;BME280;5303;53.266;10.410;2024-01-30T11:18:50;102305.38;;;7.87;100.00
10510;BME280;5303;53.266;10.410;2024-01-30T11:21:16;102297.75;;;7.94;100.00
10510;BME280;5303;53.266;10.410;2024-01-30T11:23:42;102303.19;;;8.00;100.00
10510;BME280;5303;53.266;10.410;2024-01-30T11:26:10;102295.56;;;8.08;100.00
10510;BME280;5303;53.266;10.410;2024-01-30T11:28:37;102291.09;;;8.05;100.00
10510;BME280;5303;53.266;10.410;2024-01-30T11:31:04;102287.81;;;8.13;100.00
10510;BME280;5303;53.266;10.410;2024-01-30T11:33:30;102289.59;;;8.14;100.00
10510;BME280;5303;53.266;10.410;2024-01-30T11:35:57;102290.75;;;8.23;100.00
10510;BME280;5303;53.266;10.410;2024-01-30T11:38:27;102282.06;;;8.26;100.00
10510;BME280;5303;53.266;10.410;2024-01-30T11:40:54;102279.63;;;8.32;100.00
10510;BME280;5303;53.266;10.410;2024-01-30T11:43:19;102283.31;;;8.37;100.00
10510;BME280;5303;53.266;10.410;2024-01-30T11:45:45;102287.94;;;8.46;100.00
10510;BME280;5303;53.266;10.410;2024-01-30T11:48:12;102282.84;;;8.50;100.00
10510;BME280;5303;53.266;10.410;2024-01-30T11:50:38;102283.78;;;8.52;100.00
10510;BME280;5303;53.266;10.410;2024-01-30T11:53:04;102288.19;;;8.53;100.00
10510;BME280;5303;53.266;10.410;2024-01-30T11:55:30;102282.00;;;8.51;100.00
10510;BME280;5303;53.266;10.410;2024-01-30T11:57:57;102282.09;;;8.56;100.00
10510;BME280;5303;53.266;10.410;2024-01-30T12:00:22;102280.47;;;8.59;100.00
10510;BME280;5303;53.266;10.410;2024-01-30T12:02:55;102280.63;;;8.65;100.00
10510;BME280;5303;53.266;10.410;2024-01-30T12:05:26;102275.53;;;8.70;100.00
10510;BME280;5303;53.266;10.410;2024-01-30T12:07:51;102272.09;;;8.74;100.00
10510;BME280;5303;53.266;10.410;2024-01-30T12:10:17;102273.06;;;8.78;100.00
10510;BME280;5303;53.266;10.410;2024-01-30T12:12:46;102275.88;;;8.84;100.00
10510;BME280;5303;53.266;10.410;2024-01-30T12:15:12;102275.97;;;8.87;100.00
10510;BME280;5303;53.266;10.410;2024-01-30T12:17:38;102269.03;;;8.89;100.00
10510;BME280;5303;53.266;10.410;2024-01-30T12:20:11;102265.44;;;8.87;100.00
10510;BME280;5303;53.266;10.410;2024-01-30T12:22:39;102259.72;;;9.02;100.00
10510;BME280;5303;53.266;10.410;2024-01-30T12:25:07;102263.19;;;9.01;100.00
10510;BME280;5303;53.266;10.410;2024-01-30T12:27:33;102253.38;;;8.95;100.00
10510;BME280;5303;53.266;10.410;2024-01-30T12:29:58;102248.38;;;9.04;100.00
10510;BME280;5303;53.266;10.410;2024-01-30T12:32:24;102261.69;;;9.10;100.00
10510;BME280;5303;53.266;10.410;2024-01-30T12:34:49;102258.09;;;9.08;100.00
10510;BME280;5303;53.266;10.410;2024-01-30T12:37:15;102265.53;;;9.23;100.00
10510;BME280;5303;53.266;10.410;2024-01-30T12:39:45;102266.50;;;9.27;100.00
10510;BME280;5303;53.266;10.410;2024-01-30T12:42:10;102261.97;;;9.21;100.00